sensor_id;sensor_type;location;lat;lon;timestamp;temperature;humidity
1626;DHT22;806;48.770;9.156;2022-08-07T00:01:05;19.70;99.90
1626;DHT22;806;48.770;9.156;2022-08-07T00:03:34;19.70;99.90
1626;DHT22;806;48.770;9.156;2022-08-07T00:06:01;19.70;99.90
1626;DHT22;806;48.770;9.156;2022-08-07T00:08:28;19.70;99.90
1626;DHT22;806;48.770;9.156;2022-08-07T00:10:55;19.80;99.90
1626;DHT22;806;48.770;9.156;2022-08-07T00:13:23;19.70;99.90
1626;DHT22;806;48.770;9.156;2022-08-07T00:15:50;19.80;99.90
1626;DHT22;806;48.770;9.156;2022-08-07T00:18:20;19.90;99.90
1626;DHT22;806;48.770;9.156;2022-08-07T00:20:49;20.00;99.90
1626;DHT22;806;48.770;9.156;2022-08-07T00:23:16;20.00;99.90
1626;DHT22;806;48.770;9.156;2022-08-07T00:25:43;19.90;99.90
1626;DHT22;806;48.770;9.156;2022-08-07T00:28:10;19.60;99.90
1626;DHT22;806;48.770;9.156;2022-08-07T00:30:37;19.40;99.90
1626;DHT22;806;48.770;9.156;2022-08-07T00:33:04;19.40;99.90
1626;DHT22;806;48.770;9.156;2022-08-07T00:35:31;19.50;99.90
1626;DHT22;806;48.770;9.156;2022-08-07T00:38:00;19.60;99.90
1626;DHT22;806;48.770;9.156;2022-08-07T00:40:27;19.70;99.90
1626;DHT22;806;48.770;9.156;2022-08-07T00:42:54;19.60;99.90
1626;DHT22;806;48.770;9.156;2022-08-07T00:45:22;19.70;99.90
1626;DHT22;806;48.770;9.156;2022-08-07T00:47:49;19.80;99.90
1626;DHT22;806;48.770;9.156;2022-08-07T00:50:16;19.80;99.90
1626;DHT22;806;48.770;9.156;2022-08-07T00:52:43;19.70;99.90
1626;DHT22;806;48.770;9.156;2022-08-07T00:55:12;19.70;99.90
1626;DHT22;806;48.770;9.156;2022-08-07T00:57:39;19.50;99.90
1626;DHT22;806;48.770;9.156;2022-08-07T01:00:07;19.60;99.90
1626;DHT22;806;48.770;9.156;2022-08-07T01:02:34;19.70;99.90
1626;DHT22;806;48.770;9.156;2022-08-07T01:05:03;19.80;99.90
1626;DHT22;806;48.770;9.156;2022-08-07T01:07:31;19.70;99.90
1626;DHT22;806;48.770;9.156;2022-08-07T01:09:58;19.80;99.90
1626;DHT22;806;48.770;9.156;2022-08-07T01:12:27;19.80;99.90
1626;DHT22;806;48.770;9.156;2022-08-07T01:14:54;19.80;99.90
1626;DHT22;806;48.770;9.156;2022-08-07T01:17:23;19.90;99.90
1626;DHT22;806;48.770;9.156;2022-08-07T01:19:51;19.90;99.90
1626;DHT22;806;48.770;9.156;2022-08-07T01:22:21;19.70;99.90
1626;DHT22;806;48.770;9.156;2022-08-07T01:24:48;19.50;99.90
1626;DHT22;806;48.770;9.156;2022-08-07T01:27:15;19.30;99.90
1626;DHT22;806;48.770;9.156;2022-08-07T01:29:42;19.20;99.90
1626;DHT22;806;48.770;9.156;2022-08-07T01:32:09;19.20;99.90
1626;DHT22;806;48.770;9.156;2022-08-07T01:34:38;19.10;99.90
1626;DHT22;806;48.770;9.156;2022-08-07T01:37:09;19.10;99.90
1626;DHT22;806;48.770;9.156;2022-08-07T01:39:38;19.00;99.90
1626;DHT22;806;48.770;9.156;2022-08-07T01:42:05;18.90;99.90
1626;DHT22;806;48.770;9.156;2022-08-07T01:44:32;18.90;99.90
1626;DHT22;806;48.770;9.156;2022-08-07T01:46:59;18.90;99.90
1626;DHT22;806;48.770;9.156;2022-08-07T01:49:26;18.90;99.90
1626;DHT22;806;48.770;9.156;2022-08-07T01:51:54;18.80;99.90
1626;DHT22;806;48.770;9.156;2022-08-07T01:54:22;18.80;99.90
1626;DHT22;806;48.770;9.156;2022-08-07T01:56:55;18.80;99.90
1626;DHT22;806;48.770;9.156;2022-08-07T01:59:24;18.90;99.90
1626;DHT22;806;48.770;9.156;2022-08-07T02:01:59;19.00;99.90
1626;DHT22;806;48.770;9.156;2022-08-07T02:04:33;18.90;99.90
1626;DHT22;806;48.770;9.156;2022-08-07T02:07:02;18.90;99.90
1626;DHT22;806;48.770;9.156;2022-08-07T02:09:31;18.70;99.90
1626;DHT22;806;48.770;9.156;2022-08-07T02:12:00;18.60;99.90
1626;DHT22;806;48.770;9.156;2022-08-07T02:14:42;18.60;99.90
1626;DHT22;806;48.770;9.156;2022-08-07T02:17:12;18.60;99.90
1626;DHT22;806;48.770;9.156;2022-08-07T02:19:42;18.60;99.90
1626;DHT22;806;48.770;9.156;2022-08-07T02:22:11;18.60;99.90
1626;DHT22;806;48.770;9.156;2022-08-07T02:24:40;18.60;99.90
1626;DHT22;806;48.770;9.156;2022-08-07T02:27:10;18.60;99.90
1626;DHT22;806;48.770;9.156;2022-08-07T02:29:38;18.60;99.90
1626;DHT22;806;48.770;9.156;2022-08-07T02:32:08;18.60;99.90
1626;DHT22;806;48.770;9.156;2022-08-07T02:34:36;18.60;1.00
1626;DHT22;806;48.770;9.156;2022-08-07T02:37:05;18.50;1.00
1626;DHT22;806;48.770;9.156;2022-08-07T02:39:34;18.50;1.00
1626;DHT22;806;48.770;9.156;2022-08-07T02:42:02;18.40;1.00
1626;DHT22;806;48.770;9.156;2022-08-07T02:44:30;18.40;1.00
1626;DHT22;806;48.770;9.156;2022-08-07T02:46:59;18.40;1.00
1626;DHT22;806;48.770;9.156;2022-08-07T02:49:28;18.40;1.00
1626;DHT22;806;48.770;9.156;2022-08-07T02:51:56;18.40;1.00
1626;DHT22;806;48.770;9.156;2022-08-07T02:54:26;18.40;1.00
1626;DHT22;806;48.770;9.156;2022-08-07T02:56:55;18.30;1.00
1626;DHT22;806;48.770;9.156;2022-08-07T02:59:26;18.30;1.00
1626;DHT22;806;48.770;9.156;2022-08-07T03:01:57;18.30;1.00
1626;DHT22;806;48.770;9.156;2022-08-07T03:04:27;18.20;1.00
1626;DHT22;806;48.770;9.156;2022-08-07T03:06:54;18.20;1.00
1626;DHT22;806;48.770;9.156;2022-08-07T03:09:22;18.00;1.00
1626;DHT22;806;48.770;9.156;2022-08-07T03:11:52;18.10;1.00
1626;DHT22;806;48.770;9.156;2022-08-07T03:14:19;18.00;1.00
1626;DHT22;806;48.770;9.156;2022-08-07T03:16:47;17.80;1.00
1626;DHT22;806;48.770;9.156;2022-08-07T03:19:16;17.70;1.00
1626;DHT22;806;48.770;9.156;2022-08-07T03:21:43;17.60;1.00
1626;DHT22;806;48.770;9.156;2022-08-07T03:24:10;17.50;1.00
1626;DHT22;806;48.770;9.156;2022-08-07T03:26:37;17.40;1.00
1626;DHT22;806;48.770;9.156;2022-08-07T03:29:05;17.50;1.00
1626;DHT22;806;48.770;9.156;2022-08-07T03:31:34;17.60;1.00
1626;DHT22;806;48.770;9.156;2022-08-07T03:34:02;17.60;1.00
1626;DHT22;806;48.770;9.156;2022-08-07T03:36:34;17.60;1.00
1626;DHT22;806;48.770;9.156;2022-08-07T03:39:04;17.60;1.00
1626;DHT22;806;48.770;9.156;2022-08-07T03:41:32;17.50;1.00
1626;DHT22;806;48.770;9.156;2022-08-07T03:44:00;17.50;1.00
1626;DHT22;806;48.770;9.156;2022-08-07T03:46:27;17.40;1.00
1626;DHT22;806;48.770;9.156;2022-08-07T03:48:55;17.40;1.00
1626;DHT22;806;48.770;9.156;2022-08-07T03:51:22;17.50;1.00
1626;DHT22;806;48.770;9.156;2022-08-07T03:53:51;17.50;1.00
1626;DHT22;806;48.770;9.156;2022-08-07T03:56:20;17.50;1.00
1626;DHT22;806;48.770;9.156;2022-08-07T03:58:49;17.60;1.00
1626;DHT22;806;48.770;9.156;2022-08-07T04:01:17;17.60;1.00
1626;DHT22;806;48.770;9.156;2022-08-07T04:03:45;17.60;1.00
1626;DHT22;806;48.770;9.156;2022-08-07T04:06:12;17.60;1.00
1626;DHT22;806;48.770;9.156;2022-08-07T04:08:39;17.70;1.00
1626;DHT22;806;48.770;9.156;2022-08-07T04:11:10;17.90;1.00
1626;DHT22;806;48.770;9.156;2022-08-07T04:13:37;17.90;1.00
1626;DHT22;806;48.770;9.156;2022-08-07T04:16:05;18.00;1.00
1626;DHT22;806;48.770;9.156;2022-08-07T04:18:32;17.90;1.00
1626;DHT22;806;48.770;9.156;2022-08-07T04:20:59;17.90;1.00
1626;DHT22;806;48.770;9.156;2022-08-07T04:23:26;18.00;1.00
1626;DHT22;806;48.770;9.156;2022-08-07T04:25:54;18.00;1.00
1626;DHT22;806;48.770;9.156;2022-08-07T04:28:23;18.20;1.00
1626;DHT22;806;48.770;9.156;2022-08-07T04:30:50;18.30;1.00
1626;DHT22;806;48.770;9.156;2022-08-07T04:33:18;18.20;1.00
1626;DHT22;806;48.770;9.156;2022-08-07T04:35:45;18.10;1.00
1626;DHT22;806;48.770;9.156;2022-08-07T04:38:13;18.00;1.00
1626;DHT22;806;48.770;9.156;2022-08-07T04:40:42;17.80;1.00
1626;DHT22;806;48.770;9.156;2022-08-07T04:43:13;17.80;1.00
1626;DHT22;806;48.770;9.156;2022-08-07T04:45:54;17.70;1.00
1626;DHT22;806;48.770;9.156;2022-08-07T04:48:27;17.70;1.00
1626;DHT22;806;48.770;9.156;2022-08-07T04:51:03;17.70;1.00
1626;DHT22;806;48.770;9.156;2022-08-07T04:53:35;17.60;1.00
1626;DHT22;806;48.770;9.156;2022-08-07T04:56:09;17.70;1.00
1626;DHT22;806;48.770;9.156;2022-08-07T04:58:44;17.70;1.00
1626;DHT22;806;48.770;9.156;2022-08-07T05:01:17;17.80;1.00
1626;DHT22;806;48.770;9.156;2022-08-07T05:03:50;17.80;1.00
1626;DHT22;806;48.770;9.156;2022-08-07T05:06:24;17.90;1.00
1626;DHT22;806;48.770;9.156;2022-08-07T05:08:59;18.10;1.00
1626;DHT22;806;48.770;9.156;2022-08-07T05:11:29;18.10;1.00
1626;DHT22;806;48.770;9.156;2022-08-07T05:14:01;18.30;1.00
1626;DHT22;806;48.770;9.156;2022-08-07T05:16:32;18.30;1.00
1626;DHT22;806;48.770;9.156;2022-08-07T05:21:48;18.50;1.00
1626;DHT22;806;48.770;9.156;2022-08-07T05:24:16;18.50;1.00
1626;DHT22;806;48.770;9.156;2022-08-07T05:26:47;18.60;1.00
1626;DHT22;806;48.770;9.156;2022-08-07T05:29:17;18.60;1.00
1626;DHT22;806;48.770;9.156;2022-08-07T05:31:48;18.30;1.00
1626;DHT22;806;48.770;9.156;2022-08-07T05:34:16;18.30;1.00
1626;DHT22;806;48.770;9.156;2022-08-07T05:36:45;18.40;1.00
1626;DHT22;806;48.770;9.156;2022-08-07T05:39:14;18.40;1.00
1626;DHT22;806;48.770;9.156;2022-08-07T05:41:43;18.40;1.00
1626;DHT22;806;48.770;9.156;2022-08-07T05:44:12;18.60;1.00
1626;DHT22;806;48.770;9.156;2022-08-07T05:46:40;18.70;1.00
1626;DHT22;806;48.770;9.156;2022-08-07T05:49:09;18.70;1.00
1626;DHT22;806;48.770;9.156;2022-08-07T05:51:37;18.60;1.00
1626;DHT22;806;48.770;9.156;2022-08-07T05:54:04;18.30;1.00
1626;DHT22;806;48.770;9.156;2022-08-07T05:56:33;18.30;1.00
1626;DHT22;806;48.770;9.156;2022-08-07T05:59:01;18.20;1.00
1626;DHT22;806;48.770;9.156;2022-08-07T06:01:30;18.20;1.00
1626;DHT22;806;48.770;9.156;2022-08-07T06:03:59;18.60;1.00
1626;DHT22;806;48.770;9.156;2022-08-07T06:06:28;18.80;1.00
1626;DHT22;806;48.770;9.156;2022-08-07T06:08:56;18.80;1.00
1626;DHT22;806;48.770;9.156;2022-08-07T06:11:23;19.00;1.00
1626;DHT22;806;48.770;9.156;2022-08-07T06:13:50;19.10;1.00
1626;DHT22;806;48.770;9.156;2022-08-07T06:16:19;19.00;1.00
1626;DHT22;806;48.770;9.156;2022-08-07T06:18:48;19.00;1.00
1626;DHT22;806;48.770;9.156;2022-08-07T06:21:16;18.80;1.00
1626;DHT22;806;48.770;9.156;2022-08-07T06:23:45;18.70;1.00
1626;DHT22;806;48.770;9.156;2022-08-07T06:26:13;18.70;1.00
1626;DHT22;806;48.770;9.156;2022-08-07T06:28:50;18.80;1.00
1626;DHT22;806;48.770;9.156;2022-08-07T06:31:18;18.80;1.00
1626;DHT22;806;48.770;9.156;2022-08-07T06:33:45;18.80;1.00
1626;DHT22;806;48.770;9.156;2022-08-07T06:36:12;19.00;1.00
1626;DHT22;806;48.770;9.156;2022-08-07T06:38:40;19.20;1.00
1626;DHT22;806;48.770;9.156;2022-08-07T06:41:11;19.30;1.00
1626;DHT22;806;48.770;9.156;2022-08-07T06:43:42;19.30;1.00
1626;DHT22;806;48.770;9.156;2022-08-07T06:46:11;19.40;1.00
1626;DHT22;806;48.770;9.156;2022-08-07T06:48:38;19.30;1.00
1626;DHT22;806;48.770;9.156;2022-08-07T06:51:08;19.20;1.00
1626;DHT22;806;48.770;9.156;2022-08-07T06:53:36;19.10;1.00
1626;DHT22;806;48.770;9.156;2022-08-07T06:56:06;19.20;1.00
1626;DHT22;806;48.770;9.156;2022-08-07T06:58:35;19.30;1.00
1626;DHT22;806;48.770;9.156;2022-08-07T07:01:06;19.40;1.00
1626;DHT22;806;48.770;9.156;2022-08-07T07:03:37;19.50;1.00
1626;DHT22;806;48.770;9.156;2022-08-07T07:06:06;19.70;1.00
1626;DHT22;806;48.770;9.156;2022-08-07T07:08:33;19.80;1.00
1626;DHT22;806;48.770;9.156;2022-08-07T07:11:00;19.90;1.00
1626;DHT22;806;48.770;9.156;2022-08-07T07:13:32;19.90;1.00
1626;DHT22;806;48.770;9.156;2022-08-07T07:16:03;19.90;1.00
1626;DHT22;806;48.770;9.156;2022-08-07T07:18:37;20.00;1.00
1626;DHT22;806;48.770;9.156;2022-08-07T07:21:07;20.20;1.00
1626;DHT22;806;48.770;9.156;2022-08-07T07:23:36;20.30;1.00
1626;DHT22;806;48.770;9.156;2022-08-07T07:26:05;20.20;1.00
1626;DHT22;806;48.770;9.156;2022-08-07T07:28:36;20.10;1.00
1626;DHT22;806;48.770;9.156;2022-08-07T07:31:09;20.10;1.00
1626;DHT22;806;48.770;9.156;2022-08-07T07:33:38;20.10;1.00
1626;DHT22;806;48.770;9.156;2022-08-07T07:36:07;20.20;1.00
1626;DHT22;806;48.770;9.156;2022-08-07T07:38:35;20.40;1.00
1626;DHT22;806;48.770;9.156;2022-08-07T07:41:04;20.60;1.00
1626;DHT22;806;48.770;9.156;2022-08-07T07:43:32;20.80;1.00
1626;DHT22;806;48.770;9.156;2022-08-07T07:46:02;20.90;1.00
1626;DHT22;806;48.770;9.156;2022-08-07T07:48:32;21.00;1.00
1626;DHT22;806;48.770;9.156;2022-08-07T07:51:00;21.20;1.00
1626;DHT22;806;48.770;9.156;2022-08-07T07:53:29;21.10;1.00
1626;DHT22;806;48.770;9.156;2022-08-07T07:55:58;21.10;1.00
1626;DHT22;806;48.770;9.156;2022-08-07T07:58:28;21.20;1.00
1626;DHT22;806;48.770;9.156;2022-08-07T08:00:56;21.40;1.00
1626;DHT22;806;48.770;9.156;2022-08-07T08:03:24;21.50;1.00
1626;DHT22;806;48.770;9.156;2022-08-07T08:05:54;21.60;1.00
1626;DHT22;806;48.770;9.156;2022-08-07T08:08:22;21.90;1.00
1626;DHT22;806;48.770;9.156;2022-08-07T08:10:50;22.10;1.00
1626;DHT22;806;48.770;9.156;2022-08-07T08:13:19;22.20;1.00
1626;DHT22;806;48.770;9.156;2022-08-07T08:15:48;22.20;1.00
1626;DHT22;806;48.770;9.156;2022-08-07T08:18:16;22.20;1.00
1626;DHT22;806;48.770;9.156;2022-08-07T08:20:44;22.30;1.00
1626;DHT22;806;48.770;9.156;2022-08-07T08:23:14;22.40;1.00
1626;DHT22;806;48.770;9.156;2022-08-07T08:26:02;22.50;1.00
1626;DHT22;806;48.770;9.156;2022-08-07T08:28:49;22.60;1.00
1626;DHT22;806;48.770;9.156;2022-08-07T08:31:22;22.80;1.00
1626;DHT22;806;48.770;9.156;2022-08-07T08:33:52;23.00;1.00
1626;DHT22;806;48.770;9.156;2022-08-07T08:36:25;23.00;1.00
1626;DHT22;806;48.770;9.156;2022-08-07T08:38:55;23.10;1.00
1626;DHT22;806;48.770;9.156;2022-08-07T08:41:30;23.00;1.00
1626;DHT22;806;48.770;9.156;2022-08-07T08:44:06;23.10;1.00
1626;DHT22;806;48.770;9.156;2022-08-07T08:46:41;23.20;1.00
1626;DHT22;806;48.770;9.156;2022-08-07T08:49:15;23.30;1.00
1626;DHT22;806;48.770;9.156;2022-08-07T08:51:51;23.30;1.00
1626;DHT22;806;48.770;9.156;2022-08-07T08:54:29;23.20;1.00
1626;DHT22;806;48.770;9.156;2022-08-07T08:57:00;23.30;1.00
1626;DHT22;806;48.770;9.156;2022-08-07T08:59:33;23.30;1.00
1626;DHT22;806;48.770;9.156;2022-08-07T09:02:12;23.40;1.00
1626;DHT22;806;48.770;9.156;2022-08-07T09:04:44;23.50;1.00
1626;DHT22;806;48.770;9.156;2022-08-07T09:07:17;23.50;1.00
1626;DHT22;806;48.770;9.156;2022-08-07T09:09:54;23.60;1.00
1626;DHT22;806;48.770;9.156;2022-08-07T09:12:41;23.60;1.00
1626;DHT22;806;48.770;9.156;2022-08-07T09:15:32;23.70;1.00
1626;DHT22;806;48.770;9.156;2022-08-07T09:18:28;23.90;1.00
1626;DHT22;806;48.770;9.156;2022-08-07T09:21:17;24.10;1.00
1626;DHT22;806;48.770;9.156;2022-08-07T09:23:56;23.90;1.00
1626;DHT22;806;48.770;9.156;2022-08-07T09:26:32;23.90;1.00
1626;DHT22;806;48.770;9.156;2022-08-07T09:29:12;24.00;1.00
1626;DHT22;806;48.770;9.156;2022-08-07T09:31:54;24.10;1.00
1626;DHT22;806;48.770;9.156;2022-08-07T09:34:24;24.20;1.00
1626;DHT22;806;48.770;9.156;2022-08-07T09:36:59;24.40;1.00
1626;DHT22;806;48.770;9.156;2022-08-07T09:39:38;24.50;1.00
1626;DHT22;806;48.770;9.156;2022-08-07T09:42:18;24.60;1.00
1626;DHT22;806;48.770;9.156;2022-08-07T09:44:57;24.60;1.00
1626;DHT22;806;48.770;9.156;2022-08-07T09:47:33;24.70;1.00
1626;DHT22;806;48.770;9.156;2022-08-07T09:50:09;24.80;1.00
1626;DHT22;806;48.770;9.156;2022-08-07T09:52:43;24.90;1.00
1626;DHT22;806;48.770;9.156;2022-08-07T09:55:16;24.80;1.00
1626;DHT22;806;48.770;9.156;2022-08-07T09:58:07;25.00;1.00
1626;DHT22;806;48.770;9.156;2022-08-07T10:00:51;25.20;1.00
1626;DHT22;806;48.770;9.156;2022-08-07T10:03:35;25.00;1.00
1626;DHT22;806;48.770;9.156;2022-08-07T10:06:31;25.10;1.00
1626;DHT22;806;48.770;9.156;2022-08-07T10:09:32;25.20;1.00
1626;DHT22;806;48.770;9.156;2022-08-07T10:12:16;25.00;1.00
1626;DHT22;806;48.770;9.156;2022-08-07T10:21:00;25.70;1.00
1626;DHT22;806;48.770;9.156;2022-08-07T10:23:53;25.70;1.00
1626;DHT22;806;48.770;9.156;2022-08-07T10:26:29;26.20;1.00
1626;DHT22;806;48.770;9.156;2022-08-07T10:29:10;26.40;99.90
1626;DHT22;806;48.770;9.156;2022-08-07T10:31:51;26.60;99.90
1626;DHT22;806;48.770;9.156;2022-08-07T10:34:37;26.70;99.90
1626;DHT22;806;48.770;9.156;2022-08-07T10:37:17;26.50;99.90
1626;DHT22;806;48.770;9.156;2022-08-07T10:39:57;26.30;99.90
1626;DHT22;806;48.770;9.156;2022-08-07T10:42:33;26.50;99.90
1626;DHT22;806;48.770;9.156;2022-08-07T10:45:10;27.00;99.90
1626;DHT22;806;48.770;9.156;2022-08-07T10:47:44;27.50;99.90
1626;DHT22;806;48.770;9.156;2022-08-07T10:50:21;27.80;99.90
1626;DHT22;806;48.770;9.156;2022-08-07T10:52:57;28.00;99.90
1626;DHT22;806;48.770;9.156;2022-08-07T10:55:28;28.10;99.90
1626;DHT22;806;48.770;9.156;2022-08-07T10:58:08;28.20;99.90
1626;DHT22;806;48.770;9.156;2022-08-07T11:00:48;28.40;99.90
1626;DHT22;806;48.770;9.156;2022-08-07T11:03:22;28.40;99.90
1626;DHT22;806;48.770;9.156;2022-08-07T11:06:01;28.60;99.90
1626;DHT22;806;48.770;9.156;2022-08-07T11:08:38;28.80;99.90
1626;DHT22;806;48.770;9.156;2022-08-07T11:11:09;28.60;99.90
1626;DHT22;806;48.770;9.156;2022-08-07T11:13:43;28.50;99.90
1626;DHT22;806;48.770;9.156;2022-08-07T11:16:16;28.90;99.90
1626;DHT22;806;48.770;9.156;2022-08-07T11:18:47;29.30;99.90
1626;DHT22;806;48.770;9.156;2022-08-07T11:21:26;29.10;99.90
1626;DHT22;806;48.770;9.156;2022-08-07T11:24:00;28.80;99.90
1626;DHT22;806;48.770;9.156;2022-08-07T11:26:32;28.80;99.90
1626;DHT22;806;48.770;9.156;2022-08-07T11:29:04;29.00;99.90
1626;DHT22;806;48.770;9.156;2022-08-07T11:31:37;28.60;99.90
1626;DHT22;806;48.770;9.156;2022-08-07T11:34:15;28.50;99.90
1626;DHT22;806;48.770;9.156;2022-08-07T11:36:55;28.40;99.90
1626;DHT22;806;48.770;9.156;2022-08-07T11:39:53;28.20;99.90
1626;DHT22;806;48.770;9.156;2022-08-07T11:42:25;28.40;99.90
1626;DHT22;806;48.770;9.156;2022-08-07T11:44:59;28.90;99.90
1626;DHT22;806;48.770;9.156;2022-08-07T11:47:39;29.00;99.90
1626;DHT22;806;48.770;9.156;2022-08-07T11:50:20;29.00;99.90
1626;DHT22;806;48.770;9.156;2022-08-07T11:53:11;29.50;99.90
1626;DHT22;806;48.770;9.156;2022-08-07T11:55:54;29.60;99.90
1626;DHT22;806;48.770;9.156;2022-08-07T11:58:29;29.60;99.90
1626;DHT22;806;48.770;9.156;2022-08-07T12:01:08;29.40;99.90
1626;DHT22;806;48.770;9.156;2022-08-07T12:03:56;29.30;99.90
1626;DHT22;806;48.770;9.156;2022-08-07T12:06:45;29.20;99.90
1626;DHT22;806;48.770;9.156;2022-08-07T12:09:21;29.20;99.90
1626;DHT22;806;48.770;9.156;2022-08-07T12:11:54;28.60;99.90
1626;DHT22;806;48.770;9.156;2022-08-07T12:14:25;28.80;99.90
1626;DHT22;806;48.770;9.156;2022-08-07T12:16:55;29.00;99.90
1626;DHT22;806;48.770;9.156;2022-08-07T12:19:30;29.00;99.90
1626;DHT22;806;48.770;9.156;2022-08-07T12:22:05;29.50;99.90
1626;DHT22;806;48.770;9.156;2022-08-07T12:24:40;29.80;99.90
1626;DHT22;806;48.770;9.156;2022-08-07T12:27:36;29.40;99.90
1626;DHT22;806;48.770;9.156;2022-08-07T12:30:06;29.50;99.90
1626;DHT22;806;48.770;9.156;2022-08-07T12:32:38;29.60;99.90
1626;DHT22;806;48.770;9.156;2022-08-07T12:35:10;29.80;99.90
1626;DHT22;806;48.770;9.156;2022-08-07T12:37:39;30.40;99.90
1626;DHT22;806;48.770;9.156;2022-08-07T12:40:10;30.50;99.90
1626;DHT22;806;48.770;9.156;2022-08-07T12:42:39;30.30;99.90
1626;DHT22;806;48.770;9.156;2022-08-07T12:45:11;30.60;99.90
1626;DHT22;806;48.770;9.156;2022-08-07T12:47:44;30.70;99.90
1626;DHT22;806;48.770;9.156;2022-08-07T12:50:17;30.90;99.90
1626;DHT22;806;48.770;9.156;2022-08-07T12:52:49;30.60;99.90
1626;DHT22;806;48.770;9.156;2022-08-07T12:55:22;30.50;99.90
1626;DHT22;806;48.770;9.156;2022-08-07T12:57:51;30.50;99.90
1626;DHT22;806;48.770;9.156;2022-08-07T13:00:20;30.20;99.90
1626;DHT22;806;48.770;9.156;2022-08-07T13:03:07;30.30;99.90
1626;DHT22;806;48.770;9.156;2022-08-07T13:05:54;30.90;99.90
1626;DHT22;806;48.770;9.156;2022-08-07T13:08:34;30.70;99.90
1626;DHT22;806;48.770;9.156;2022-08-07T13:11:24;30.40;99.90
1626;DHT22;806;48.770;9.156;2022-08-07T13:14:02;30.50;99.90
1626;DHT22;806;48.770;9.156;2022-08-07T13:16:38;30.80;99.90
1626;DHT22;806;48.770;9.156;2022-08-07T13:19:16;31.10;99.90
1626;DHT22;806;48.770;9.156;2022-08-07T13:21:54;31.10;99.90
1626;DHT22;806;48.770;9.156;2022-08-07T13:24:25;30.90;99.90
1626;DHT22;806;48.770;9.156;2022-08-07T13:26:59;30.80;99.90
1626;DHT22;806;48.770;9.156;2022-08-07T13:29:33;30.80;99.90
1626;DHT22;806;48.770;9.156;2022-08-07T13:32:04;30.90;99.90
1626;DHT22;806;48.770;9.156;2022-08-07T13:34:37;30.80;99.90
1626;DHT22;806;48.770;9.156;2022-08-07T13:37:09;31.00;99.90
1626;DHT22;806;48.770;9.156;2022-08-07T13:39:47;31.20;99.90
1626;DHT22;806;48.770;9.156;2022-08-07T13:42:22;30.90;99.90
1626;DHT22;806;48.770;9.156;2022-08-07T13:44:50;30.80;99.90
1626;DHT22;806;48.770;9.156;2022-08-07T13:47:19;30.80;99.90
1626;DHT22;806;48.770;9.156;2022-08-07T13:49:48;30.70;99.90
1626;DHT22;806;48.770;9.156;2022-08-07T13:52:18;30.80;99.90
1626;DHT22;806;48.770;9.156;2022-08-07T13:54:47;30.60;99.90
1626;DHT22;806;48.770;9.156;2022-08-07T13:57:18;30.30;99.90
1626;DHT22;806;48.770;9.156;2022-08-07T13:59:51;30.40;99.90
1626;DHT22;806;48.770;9.156;2022-08-07T14:02:23;30.50;99.90
1626;DHT22;806;48.770;9.156;2022-08-07T14:04:53;30.50;99.90
1626;DHT22;806;48.770;9.156;2022-08-07T14:07:27;30.40;99.90
1626;DHT22;806;48.770;9.156;2022-08-07T14:09:55;30.00;99.90
1626;DHT22;806;48.770;9.156;2022-08-07T14:12:32;29.80;99.90
1626;DHT22;806;48.770;9.156;2022-08-07T14:15:03;29.80;99.90
1626;DHT22;806;48.770;9.156;2022-08-07T14:17:34;30.20;99.90
1626;DHT22;806;48.770;9.156;2022-08-07T14:20:07;30.30;99.90
1626;DHT22;806;48.770;9.156;2022-08-07T14:22:36;30.30;99.90
1626;DHT22;806;48.770;9.156;2022-08-07T14:25:08;29.60;99.90
1626;DHT22;806;48.770;9.156;2022-08-07T14:27:40;29.60;99.90
1626;DHT22;806;48.770;9.156;2022-08-07T14:30:11;29.50;99.90
1626;DHT22;806;48.770;9.156;2022-08-07T14:32:40;29.70;99.90
1626;DHT22;806;48.770;9.156;2022-08-07T14:35:14;29.60;99.90
1626;DHT22;806;48.770;9.156;2022-08-07T14:37:45;29.40;99.90
1626;DHT22;806;48.770;9.156;2022-08-07T14:40:15;29.40;99.90
1626;DHT22;806;48.770;9.156;2022-08-07T14:42:52;29.50;99.90
1626;DHT22;806;48.770;9.156;2022-08-07T14:45:20;29.30;99.90
1626;DHT22;806;48.770;9.156;2022-08-07T14:47:48;29.30;99.90
1626;DHT22;806;48.770;9.156;2022-08-07T14:50:16;29.10;99.90
1626;DHT22;806;48.770;9.156;2022-08-07T14:52:45;29.10;99.90
1626;DHT22;806;48.770;9.156;2022-08-07T14:55:14;28.90;99.90
1626;DHT22;806;48.770;9.156;2022-08-07T14:57:45;28.90;99.90
1626;DHT22;806;48.770;9.156;2022-08-07T15:00:14;29.00;99.90
1626;DHT22;806;48.770;9.156;2022-08-07T15:02:44;28.90;99.90
1626;DHT22;806;48.770;9.156;2022-08-07T15:05:14;28.80;99.90
1626;DHT22;806;48.770;9.156;2022-08-07T15:07:44;28.80;99.90
1626;DHT22;806;48.770;9.156;2022-08-07T15:10:16;28.80;99.90
1626;DHT22;806;48.770;9.156;2022-08-07T15:12:48;28.90;99.90
1626;DHT22;806;48.770;9.156;2022-08-07T15:15:24;28.70;99.90
1626;DHT22;806;48.770;9.156;2022-08-07T15:17:55;28.80;99.90
1626;DHT22;806;48.770;9.156;2022-08-07T15:20:25;28.80;99.90
1626;DHT22;806;48.770;9.156;2022-08-07T15:22:55;28.90;99.90
1626;DHT22;806;48.770;9.156;2022-08-07T15:25:30;28.70;99.90
1626;DHT22;806;48.770;9.156;2022-08-07T15:28:01;28.40;99.90
1626;DHT22;806;48.770;9.156;2022-08-07T15:30:30;28.30;99.90
1626;DHT22;806;48.770;9.156;2022-08-07T15:32:59;28.30;99.90
1626;DHT22;806;48.770;9.156;2022-08-07T15:35:27;28.30;99.90
1626;DHT22;806;48.770;9.156;2022-08-07T15:37:57;28.30;99.90
1626;DHT22;806;48.770;9.156;2022-08-07T15:40:27;28.30;99.90
1626;DHT22;806;48.770;9.156;2022-08-07T15:42:57;28.20;99.90
1626;DHT22;806;48.770;9.156;2022-08-07T15:45:30;28.30;99.90
1626;DHT22;806;48.770;9.156;2022-08-07T15:47:59;28.30;99.90
1626;DHT22;806;48.770;9.156;2022-08-07T15:50:30;28.20;99.90
1626;DHT22;806;48.770;9.156;2022-08-07T15:52:59;28.10;99.90
1626;DHT22;806;48.770;9.156;2022-08-07T15:55:29;27.90;99.90
1626;DHT22;806;48.770;9.156;2022-08-07T15:57:57;27.90;99.90
1626;DHT22;806;48.770;9.156;2022-08-07T16:00:33;28.00;99.90
1626;DHT22;806;48.770;9.156;2022-08-07T16:03:09;28.00;99.90
1626;DHT22;806;48.770;9.156;2022-08-07T16:05:38;27.90;99.90
1626;DHT22;806;48.770;9.156;2022-08-07T16:08:12;27.80;99.90
1626;DHT22;806;48.770;9.156;2022-08-07T16:10:42;27.70;99.90
1626;DHT22;806;48.770;9.156;2022-08-07T16:13:46;27.70;99.90
1626;DHT22;806;48.770;9.156;2022-08-07T16:16:30;27.80;99.90
1626;DHT22;806;48.770;9.156;2022-08-07T16:21:56;27.90;99.90
1626;DHT22;806;48.770;9.156;2022-08-07T16:24:31;27.80;99.90
1626;DHT22;806;48.770;9.156;2022-08-07T16:27:05;27.80;99.90
1626;DHT22;806;48.770;9.156;2022-08-07T16:29:52;27.80;99.90
1626;DHT22;806;48.770;9.156;2022-08-07T16:32:31;27.70;99.90
1626;DHT22;806;48.770;9.156;2022-08-07T16:35:16;27.60;99.90
1626;DHT22;806;48.770;9.156;2022-08-07T16:38:01;27.50;99.90
1626;DHT22;806;48.770;9.156;2022-08-07T16:40:43;27.60;99.90
1626;DHT22;806;48.770;9.156;2022-08-07T16:43:34;27.50;99.90
1626;DHT22;806;48.770;9.156;2022-08-07T16:46:21;27.30;99.90
1626;DHT22;806;48.770;9.156;2022-08-07T16:52:02;27.30;99.90
1626;DHT22;806;48.770;9.156;2022-08-07T16:54:33;27.20;99.90
1626;DHT22;806;48.770;9.156;2022-08-07T16:57:16;27.20;99.90
1626;DHT22;806;48.770;9.156;2022-08-07T16:59:51;27.10;99.90
1626;DHT22;806;48.770;9.156;2022-08-07T17:02:44;27.10;99.90
1626;DHT22;806;48.770;9.156;2022-08-07T17:05:29;27.20;99.90
1626;DHT22;806;48.770;9.156;2022-08-07T17:08:04;27.30;99.90
1626;DHT22;806;48.770;9.156;2022-08-07T17:10:35;27.30;99.90
1626;DHT22;806;48.770;9.156;2022-08-07T17:13:27;27.30;99.90